Time;durP1;ratioP1;P1;durP2;ratioP2;P2;SDS_P1;SDS_P2;PMS_P1;PMS_P2;Temp;Humidity;BMP_temperature;BMP_pressure;BME280_temperature;BME280_humidity;BME280_pressure;Samples;Min_cycle;Max_cycle;Signal;HPM_P1;HPM_P2
2022/03/27 00:01:49;;;;;;;;;80.20;74.20;25.50;99.90;;;;;;5037459;28;8791;-72
2022/03/27 00:04:16;;;;;;;;;78.80;69.60;25.40;99.90;;;;;;5056793;28;8737;-73
2022/03/27 00:06:42;;;;;;;;;77.20;70.00;25.50;99.90;;;;;;5057151;28;9413;-65
2022/03/27 00:09:09;;;;;;;;;76.80;69.60;25.40;99.90;;;;;;5039780;28;8752;-66
2022/03/27 00:11:36;;;;;;;;;77.20;65.80;25.40;99.90;;;;;;5072192;28;8738;-73
2022/03/27 00:14:06;;;;;;;;;79.40;70.80;25.40;99.90;;;;;;5057246;28;8744;-71
2022/03/27 00:16:33;;;;;;;;;85.60;73.60;25.50;99.90;;;;;;5056888;28;8733;-72
2022/03/27 00:19:00;;;;;;;;;78.60;69.60;25.30;99.90;;;;;;5055647;28;8911;-63
2022/03/27 00:21:26;;;;;;;;;78.60;65.60;25.30;99.90;;;;;;5036637;28;8787;-72
2022/03/27 00:23:53;;;;;;;;;77.60;69.00;25.40;99.90;;;;;;5036847;28;8771;-73
2022/03/27 00:26:21;;;;;;;;;78.20;68.00;25.60;99.90;;;;;;5036818;28;8774;-73
2022/03/27 00:28:48;;;;;;;;;78.40;73.60;25.70;99.90;;;;;;5035992;28;8775;-73
2022/03/27 00:31:15;;;;;;;;;80.20;72.20;25.60;99.90;;;;;;5037590;28;8807;-72
2022/03/27 00:33:42;;;;;;;;;78.60;66.00;25.70;99.90;;;;;;5017452;28;8792;-70
2022/03/27 00:36:10;;;;;;;;;77.60;67.60;25.60;99.90;;;;;;5057023;28;8782;-73
2022/03/27 00:38:37;;;;;;;;;84.00;76.20;25.60;99.90;;;;;;5056336;28;9063;-72
2022/03/27 00:41:05;;;;;;;;;80.20;69.40;25.60;99.90;;;;;;5056806;28;8765;-62
2022/03/27 00:43:33;;;;;;;;;80.40;70.40;25.50;99.90;;;;;;5056188;28;12145;-66
2022/03/27 00:46:00;;;;;;;;;82.20;75.20;25.60;99.90;;;;;;5057568;28;8809;-72
2022/03/27 00:48:26;;;;;;;;;78.00;71.60;25.60;99.90;;;;;;5043983;28;8794;-61
2022/03/27 00:50:53;;;;;;;;;84.60;79.60;25.70;99.90;;;;;;5036885;28;8861;-66
2022/03/27 00:53:21;;;;;;;;;86.80;79.00;25.70;99.90;;;;;;5036711;28;8775;-71
2022/03/27 00:55:51;;;;;;;;;81.40;73.40;25.80;99.90;;;;;;5036627;28;8763;-68
2022/03/27 00:58:18;;;;;;;;;78.00;71.60;25.90;99.90;;;;;;5037011;28;8781;-69
2022/03/27 01:01:15;;;;;;;;;82.60;76.00;25.90;99.90;;;;;;5036522;28;8743;-74
2022/03/27 01:03:42;;;;;;;;;86.60;78.00;25.90;99.90;;;;;;5050741;28;8780;-68
2022/03/27 01:06:28;;;;;;;;;77.60;73.20;25.90;99.90;;;;;;5056324;28;8775;-68
2022/03/27 01:11:40;;;;;;;;;78.00;70.40;26.00;99.90;;;;;;5056167;28;8772;-61
2022/03/27 01:14:07;;;;;;;;;77.00;68.40;26.10;99.90;;;;;;5056434;28;8787;-46
2022/03/27 01:16:37;;;;;;;;;80.60;73.20;26.10;99.90;;;;;;5056412;28;8764;-64
2022/03/27 01:19:04;;;;;;;;;76.40;68.00;26.10;99.90;;;;;;5038873;28;8752;-75
2022/03/27 01:21:31;;;;;;;;;93.20;88.20;26.10;99.90;;;;;;5018152;28;8782;-71
2022/03/27 01:23:58;;;;;;;;;82.80;74.40;26.00;99.90;;;;;;5036359;28;8874;-64
2022/03/27 01:26:24;;;;;;;;;81.60;76.00;26.10;99.90;;;;;;5036206;28;8773;-67
2022/03/27 01:28:51;;;;;;;;;86.40;77.00;26.20;99.90;;;;;;5036266;28;8789;-72
2022/03/27 01:31:18;;;;;;;;;85.40;79.20;26.20;99.90;;;;;;5051925;28;8841;-65
2022/03/27 01:33:45;;;;;;;;;83.20;76.40;26.30;99.90;;;;;;5051337;28;8780;-72
2022/03/27 01:36:11;;;;;;;;;77.20;70.80;26.30;99.90;;;;;;5034892;28;8769;-61
2022/03/27 01:38:38;;;;;;;;;77.80;74.00;26.30;99.90;;;;;;5036147;28;8789;-65
2022/03/27 01:41:05;;;;;;;;;78.20;69.60;26.40;99.90;;;;;;5039455;28;8773;-72
2022/03/27 01:43:31;;;;;;;;;79.80;73.80;26.50;99.90;;;;;;5039787;28;8758;-68
2022/03/27 01:45:58;;;;;;;;;77.40;67.40;26.50;99.90;;;;;;5040435;28;8760;-68
2022/03/27 01:48:24;;;;;;;;;88.80;78.80;26.50;99.90;;;;;;5027471;28;8803;-75
2022/03/27 01:50:58;;;;;;;;;87.40;79.60;26.50;99.90;;;;;;5018749;28;8812;-72
2022/03/27 01:53:25;;;;;;;;;85.20;80.40;26.60;99.90;;;;;;5020100;28;8791;-62
2022/03/27 01:55:52;;;;;;;;;79.80;68.80;26.70;99.90;;;;;;5020178;28;8759;-70
2022/03/27 01:58:19;;;;;;;;;76.20;65.00;26.70;99.90;;;;;;5020659;28;8740;-71
2022/03/27 02:00:45;;;;;;;;;79.20;71.00;26.80;99.90;;;;;;5019952;28;8779;-63
2022/03/27 02:03:12;;;;;;;;;71.00;61.60;26.90;99.90;;;;;;5030163;28;8786;-70
2022/03/27 02:05:38;;;;;;;;;70.60;62.80;26.90;99.90;;;;;;5039577;28;8810;-72
2022/03/27 02:08:05;;;;;;;;;73.80;64.80;27.00;99.90;;;;;;5039888;28;8846;-62
2022/03/27 02:10:32;;;;;;;;;94.20;88.00;27.00;99.90;;;;;;5039525;28;8976;-74
2022/03/27 02:12:58;;;;;;;;;81.20;77.80;26.90;99.90;;;;;;5040176;28;8868;-58
2022/03/27 02:15:25;;;;;;;;;85.00;79.40;27.00;99.90;;;;;;5039339;28;9475;-70
2022/03/27 02:17:52;;;;;;;;;86.00;78.00;26.90;99.90;;;;;;5031950;28;8776;-51
2022/03/27 02:20:19;;;;;;;;;80.60;70.60;27.00;99.90;;;;;;5019667;28;8819;-58
2022/03/27 02:22:45;;;;;;;;;82.20;77.40;27.10;99.90;;;;;;5018252;28;8795;-72
2022/03/27 02:25:12;;;;;;;;;78.40;72.40;27.10;99.90;;;;;;5019158;28;8840;-74
2022/03/27 02:27:38;;;;;;;;;78.20;69.60;27.20;99.90;;;;;;5019521;28;8808;-68
2022/03/27 02:30:07;;;;;;;;;76.40;68.20;27.20;99.90;;;;;;5019348;28;8792;-66
2022/03/27 02:32:33;;;;;;;;;73.00;62.80;27.30;99.90;;;;;;5023960;28;8766;-73
2022/03/27 02:35:00;;;;;;;;;76.60;64.20;27.40;99.90;;;;;;5037991;28;8789;-73
2022/03/27 02:37:26;;;;;;;;;76.20;67.20;27.50;99.90;;;;;;5037669;28;8738;-66
2022/03/27 02:39:53;;;;;;;;;64.40;51.20;27.60;99.90;;;;;;5039762;28;8745;-73
2022/03/27 02:42:20;;;;;;;;;70.00;54.20;27.60;99.90;;;;;;5038565;28;9348;-53
2022/03/27 02:44:46;;;;;;;;;65.80;52.20;27.70;99.90;;;;;;5037728;28;9421;-58
2022/03/27 02:47:13;;;;;;;;;64.60;51.40;27.80;99.90;;;;;;5036575;28;8840;-49
2022/03/27 02:49:40;;;;;;;;;71.00;57.40;27.70;99.90;;;;;;5018760;28;8774;-46
2022/03/27 02:52:06;;;;;;;;;64.20;51.80;27.80;99.90;;;;;;5001209;28;8804;-75
2022/03/27 02:54:34;;;;;;;;;71.20;56.60;27.80;99.90;;;;;;5018681;28;8763;-71
2022/03/27 02:57:01;;;;;;;;;70.40;56.60;27.90;99.90;;;;;;5018704;28;8871;-67
2022/03/27 02:59:28;;;;;;;;;63.00;51.20;27.90;99.90;;;;;;5018568;28;8761;-72
2022/03/27 03:01:55;;;;;;;;;63.00;50.40;28.00;99.90;;;;;;5019394;28;9461;-65
2022/03/27 03:04:21;;;;;;;;;68.00;54.60;28.00;99.90;;;;;;5019174;28;8737;-60
2022/03/27 03:06:48;;;;;;;;;67.00;53.40;28.00;99.90;;;;;;5019186;28;8768;-70
2022/03/27 03:09:15;;;;;;;;;65.60;53.00;28.10;99.90;;;;;;5017604;28;8756;-70
2022/03/27 03:11:43;;;;;;;;;60.00;49.00;28.20;99.90;;;;;;5018789;28;8787;-72
2022/03/27 03:14:10;;;;;;;;;62.40;49.40;28.20;99.90;;;;;;5018763;28;8792;-63
2022/03/27 03:16:37;;;;;;;;;65.20;51.00;28.20;99.90;;;;;;5018119;28;8859;-60
2022/03/27 03:19:08;;;;;;;;;61.40;48.00;28.30;99.90;;;;;;5036124;28;8730;-72
2022/03/27 03:21:34;;;;;;;;;60.00;49.20;28.50;99.90;;;;;;5038355;28;8849;-70
2022/03/27 03:24:01;;;;;;;;;61.60;49.80;28.40;99.90;;;;;;5038371;28;9467;-68
2022/03/27 03:26:28;;;;;;;;;60.75;49.50;28.50;99.90;;;;;;5036473;28;9232;-69
2022/03/27 03:28:54;;;;;;;;;63.50;50.75;28.60;99.90;;;;;;5036674;28;8754;-70
2022/03/27 03:31:21;;;;;;;;;64.50;49.75;28.60;99.90;;;;;;5037041;28;9442;-69
2022/03/27 03:33:47;;;;;;;;;56.20;46.20;28.60;99.90;;;;;;5021101;28;8769;-72
2022/03/27 03:36:15;;;;;;;;;61.00;47.75;28.80;99.90;;;;;;5036272;28;8762;-61
2022/03/27 03:38:42;;;;;;;;;56.75;46.75;28.70;99.90;;;;;;5037717;28;8759;-67
2022/03/27 03:41:09;;;;;;;;;57.25;47.25;28.80;99.90;;;;;;5036598;28;8767;-71
2022/03/27 03:43:36;;;;;;;;;58.25;46.50;28.70;99.90;;;;;;5037568;28;8759;-68
2022/03/27 03:46:04;;;;;;;;;56.25;45.75;28.80;99.90;;;;;;5038338;28;8805;-71
2022/03/27 03:48:31;;;;;;;;;53.50;42.75;28.90;99.90;;;;;;5050124;28;8756;-66
2022/03/27 03:50:57;;;;;;;;;53.25;44.25;29.10;99.90;;;;;;5057790;28;8803;-71
2022/03/27 03:53:25;;;;;;;;;51.75;43.00;29.00;99.90;;;;;;5057441;28;9498;-68
2022/03/27 03:55:52;;;;;;;;;52.50;43.75;29.20;99.90;;;;;;5039867;28;8772;-70
2022/03/27 03:58:18;;;;;;;;;55.50;44.50;29.20;99.90;;;;;;5058080;28;8744;-66
2022/03/27 04:00:46;;;;;;;;;58.50;46.50;29.30;99.90;;;;;;5072756;28;8771;-70
2022/03/27 04:03:14;;;;;;;;;49.25;41.75;29.40;99.90;;;;;;5046634;28;8747;-67
2022/03/27 04:05:41;;;;;;;;;57.00;45.25;29.40;99.90;;;;;;5037120;28;8751;-73
2022/03/27 04:08:07;;;;;;;;;55.75;45.25;29.40;99.90;;;;;;5037411;28;8786;-68
2022/03/27 04:10:34;;;;;;;;;56.25;46.50;29.50;99.90;;;;;;5036936;28;8861;-68
2022/03/27 04:13:01;;;;;;;;;59.25;47.25;29.50;99.90;;;;;;5037748;28;8739;-66
2022/03/27 04:15:28;;;;;;;;;53.00;43.25;29.50;99.90;;;;;;5036930;28;8759;-70
2022/03/27 04:17:54;;;;;;;;;60.25;48.50;29.40;99.90;;;;;;5044968;28;8752;-66
2022/03/27 04:20:21;;;;;;;;;49.50;41.50;29.70;99.90;;;;;;5057167;28;8748;-70
2022/03/27 04:22:48;;;;;;;;;50.75;42.75;29.80;99.90;;;;;;5056917;28;8772;-66
2022/03/27 04:25:15;;;;;;;;;55.50;44.75;29.80;99.90;;;;;;5057740;28;8814;-70
2022/03/27 04:27:42;;;;;;;;;53.25;44.25;29.60;99.90;;;;;;5038962;28;8768;-66
2022/03/27 04:30:09;;;;;;;;;55.25;45.25;29.80;99.90;;;;;;5056957;28;8784;-70
2022/03/27 04:32:40;;;;;;;;;60.75;47.00;29.90;99.90;;;;;;5051216;28;8759;-71
2022/03/27 04:35:09;;;;;;;;;55.75;44.75;30.10;99.90;;;;;;5036589;28;8763;-63
2022/03/27 04:37:42;;;;;;;;;55.00;43.50;30.10;99.90;;;;;;5036554;28;8727;-70
2022/03/27 04:40:10;;;;;;;;;46.50;39.25;30.00;99.90;;;;;;5003310;28;8727;-69
2022/03/27 04:42:37;;;;;;;;;53.25;42.50;30.00;99.90;;;;;;5036505;28;8747;-65
2022/03/27 04:45:04;;;;;;;;;53.25;45.00;30.40;99.00;;;;;;5036938;28;8720;-69
2022/03/27 04:47:30;;;;;;;;;57.25;47.00;30.30;99.10;;;;;;5040845;28;8740;-71
2022/03/27 04:49:57;;;;;;;;;55.50;44.00;30.20;99.20;;;;;;5038705;28;8764;-68
2022/03/27 04:52:24;;;;;;;;;52.75;44.00;30.30;99.30;;;;;;5039326;28;8971;-69
2022/03/27 04:54:51;;;;;;;;;48.50;41.00;30.40;99.30;;;;;;5038606;28;10564;-66
2022/03/27 04:57:17;;;;;;;;;56.50;45.75;30.50;99.40;;;;;;5056294;28;9606;-70
2022/03/27 04:59:44;;;;;;;;;55.75;44.50;30.40;98.90;;;;;;5056280;28;8934;-72
2022/03/27 05:02:11;;;;;;;;;54.00;43.50;30.20;98.50;;;;;;5054275;28;8830;-62
2022/03/27 05:04:40;;;;;;;;;55.00;45.75;30.10;98.50;;;;;;5036268;28;8786;-60
2022/03/27 05:07:07;;;;;;;;;52.25;44.00;30.20;99.20;;;;;;5037837;28;8766;-73
2022/03/27 05:09:34;;;;;;;;;52.50;44.00;30.30;97.50;;;;;;5016631;28;8855;-71
2022/03/27 05:12:00;;;;;;;;;52.25;42.50;30.40;97.20;;;;;;5016534;28;8767;-69
2022/03/27 05:14:27;;;;;;;;;48.25;40.00;30.30;97.50;;;;;;5017548;28;8760;-68
2022/03/27 05:16:54;;;;;;;;;52.25;44.75;30.40;96.90;;;;;;5020913;28;8757;-69
2022/03/27 05:19:20;;;;;;;;;54.75;44.25;30.60;98.00;;;;;;5039236;28;9255;-60
2022/03/27 05:21:47;;;;;;;;;51.25;43.25;30.60;97.60;;;;;;5040588;28;8750;-69
2022/03/27 05:24:14;;;;;;;;;48.50;41.00;30.70;97.90;;;;;;5039601;28;8762;-72
2022/03/27 05:26:40;;;;;;;;;53.25;44.00;30.70;98.00;;;;;;5040399;28;8790;-63
2022/03/27 05:29:10;;;;;;;;;49.25;41.25;30.90;97.50;;;;;;5040503;28;8792;-63
2022/03/27 05:31:40;;;;;;;;;53.50;43.75;30.90;96.50;;;;;;5038774;28;8793;-71
2022/03/27 05:34:07;;;;;;;;;50.25;42.50;30.70;97.50;;;;;;5022842;28;8818;-71
2022/03/27 05:36:33;;;;;;;;;49.50;41.25;30.90;97.40;;;;;;5020356;28;8826;-63
2022/03/27 05:39:00;;;;;;;;;52.50;42.25;31.10;95.60;;;;;;5020516;28;8811;-68
2022/03/27 05:41:27;;;;;;;;;49.25;42.50;30.90;96.80;;;;;;5018882;28;8752;-72
2022/03/27 05:43:53;;;;;;;;;49.00;40.50;31.10;97.20;;;;;;5019007;28;8799;-65
2022/03/27 05:46:20;;;;;;;;;53.75;43.50;31.20;96.70;;;;;;5020494;28;8759;-69
2022/03/27 05:48:47;;;;;;;;;49.75;41.00;31.20;96.30;;;;;;5034915;28;8803;-66
2022/03/27 05:51:13;;;;;;;;;51.25;43.25;31.30;95.90;;;;;;5039493;28;8781;-70
2022/03/27 05:53:40;;;;;;;;;50.25;42.00;31.50;95.80;;;;;;5055294;28;8758;-67
2022/03/27 05:56:07;;;;;;;;;49.00;40.75;31.50;96.00;;;;;;5040018;28;8826;-66
2022/03/27 05:58:35;;;;;;;;;50.00;40.25;31.70;95.30;;;;;;5039683;28;8859;-68
2022/03/27 06:01:01;;;;;;;;;51.25;43.00;31.70;94.30;;;;;;5039178;28;8745;-64
2022/03/27 06:03:28;;;;;;;;;51.00;42.00;31.70;93.90;;;;;;5026361;28;9413;-70
2022/03/27 06:09:37;;;;;;;;;53.75;44.00;31.10;93.20;;;;;;4978318;28;9077;-68
2022/03/27 06:12:04;;;;;;;;;49.00;40.00;31.30;93.10;;;;;;5014158;28;9452;-68
2022/03/27 06:14:31;;;;;;;;;48.75;39.50;31.30;92.40;;;;;;5019661;28;8812;-68
2022/03/27 06:16:58;;;;;;;;;48.50;40.50;31.60;92.30;;;;;;5019835;28;8838;-68
2022/03/27 06:19:24;;;;;;;;;49.00;40.25;31.80;92.20;;;;;;5020013;28;9454;-69
2022/03/27 06:21:51;;;;;;;;;47.75;40.50;31.70;92.90;;;;;;5051875;28;8796;-62
2022/03/27 06:24:18;;;;;;;;;48.75;41.50;31.40;92.20;;;;;;5019630;28;8764;-62
2022/03/27 06:26:44;;;;;;;;;48.00;39.75;31.60;90.70;;;;;;5017486;28;8767;-72
2022/03/27 06:29:14;;;;;;;;;51.25;42.00;31.40;91.60;;;;;;5018519;28;8874;-63
2022/03/27 06:31:40;;;;;;;;;48.50;40.50;31.40;92.00;;;;;;5019039;28;8751;-72
2022/03/27 06:34:07;;;;;;;;;49.00;42.00;31.70;91.60;;;;;;5032904;28;8756;-73
2022/03/27 06:36:37;;;;;;;;;43.75;36.25;31.70;92.50;;;;;;5019219;28;8757;-48
2022/03/27 06:39:05;;;;;;;;;44.75;38.25;31.70;92.20;;;;;;5019767;28;8756;-67
2022/03/27 06:41:31;;;;;;;;;51.50;42.00;31.70;91.50;;;;;;5019134;28;8776;-63
2022/03/27 06:43:58;;;;;;;;;45.50;38.50;31.90;91.40;;;;;;5019115;28;9108;-73
2022/03/27 06:46:25;;;;;;;;;50.00;41.50;31.90;92.10;;;;;;5017600;28;8744;-66
2022/03/27 06:48:51;;;;;;;;;48.25;40.00;32.00;92.30;;;;;;5035040;28;9402;-64
2022/03/27 06:51:19;;;;;;;;;50.00;41.25;32.00;91.60;;;;;;5037275;28;8762;-72
2022/03/27 06:53:46;;;;;;;;;49.25;41.25;32.00;90.90;;;;;;5038565;28;8903;-72
2022/03/27 06:56:13;;;;;;;;;49.50;41.75;31.90;90.70;;;;;;5038785;28;8772;-59
2022/03/27 06:58:40;;;;;;;;;50.75;41.75;31.80;91.40;;;;;;5038683;28;8761;-71
2022/03/27 07:03:51;;;;;;;;;49.75;42.25;32.10;91.40;;;;;;5022513;28;9401;-49
2022/03/27 07:06:18;;;;;;;;;50.75;40.25;32.10;91.90;;;;;;5018064;28;9303;-68
2022/03/27 07:08:44;;;;;;;;;48.00;40.00;32.30;92.10;;;;;;5001319;28;8789;-72
2022/03/27 07:11:12;;;;;;;;;42.25;35.25;32.40;90.40;;;;;;5019101;28;8862;-74
2022/03/27 07:13:39;;;;;;;;;48.25;40.00;32.20;90.10;;;;;;5018889;28;8802;-65
2022/03/27 07:16:05;;;;;;;;;47.50;40.25;32.00;90.80;;;;;;5019826;28;8759;-72
2022/03/27 07:18:32;;;;;;;;;47.50;39.75;32.20;90.40;;;;;;5031296;28;8738;-69
2022/03/27 07:20:59;;;;;;;;;52.25;43.00;32.20;90.00;;;;;;5039014;28;8952;-72
2022/03/27 07:23:26;;;;;;;;;47.50;39.00;32.10;89.20;;;;;;5039210;28;8746;-67
2022/03/27 07:25:55;;;;;;;;;40.25;35.00;32.10;90.00;;;;;;5038708;28;8750;-63
2022/03/27 07:28:21;;;;;;;;;45.75;38.00;32.20;90.10;;;;;;5039224;28;8730;-71
2022/03/27 07:30:48;;;;;;;;;47.75;38.00;32.30;90.20;;;;;;5038561;28;8738;-73
2022/03/27 07:33:16;;;;;;;;;44.00;38.00;32.40;90.30;;;;;;5026318;28;8748;-71
2022/03/27 07:35:42;;;;;;;;;48.00;40.50;32.40;89.70;;;;;;5017470;28;8729;-60
2022/03/27 07:38:09;;;;;;;;;48.00;37.75;32.50;89.30;;;;;;5016943;28;8773;-71
2022/03/27 07:40:36;;;;;;;;;43.50;37.50;32.30;88.40;;;;;;5018786;28;9006;-72
2022/03/27 07:43:03;;;;;;;;;44.50;36.50;32.60;87.40;;;;;;5019374;28;8756;-60
2022/03/27 07:45:30;;;;;;;;;50.75;41.00;32.70;86.80;;;;;;5017678;28;8760;-72
2022/03/27 07:47:57;;;;;;;;;45.25;38.75;32.60;87.50;;;;;;5026111;28;8734;-66
2022/03/27 07:50:27;;;;;;;;;47.00;39.75;32.60;88.40;;;;;;5037794;28;8870;-57
2022/03/27 07:52:54;;;;;;;;;47.50;39.50;33.10;87.50;;;;;;5037852;28;8761;-68
2022/03/27 07:55:21;;;;;;;;;48.00;41.25;32.90;88.20;;;;;;5037954;28;8745;-71
2022/03/27 07:57:48;;;;;;;;;49.00;40.00;32.90;88.20;;;;;;5037593;28;8722;-72
2022/03/27 08:00:16;;;;;;;;;44.00;37.00;32.70;87.30;;;;;;5037504;28;8788;-73
2022/03/27 08:02:43;;;;;;;;;46.50;38.00;32.60;86.50;;;;;;5030036;28;8773;-49
2022/03/27 08:05:10;;;;;;;;;46.00;38.75;32.70;86.90;;;;;;5016455;28;8740;-70
2022/03/27 08:07:37;;;;;;;;;48.00;39.00;32.90;87.10;;;;;;5016359;28;8784;-60
2022/03/27 08:10:04;;;;;;;;;44.75;38.00;33.00;90.10;;;;;;5017011;28;8768;-71
2022/03/27 08:12:31;;;;;;;;;45.00;39.50;32.80;87.40;;;;;;5017440;28;8800;-73
2022/03/27 08:14:57;;;;;;;;;46.50;38.25;32.80;89.80;;;;;;5017590;28;8849;-71
2022/03/27 08:17:24;;;;;;;;;49.25;40.50;32.70;90.30;;;;;;5021150;28;8734;-72
2022/03/27 08:19:51;;;;;;;;;44.75;38.25;32.50;90.10;;;;;;5037308;28;8773;-64
2022/03/27 08:22:19;;;;;;;;;44.75;38.25;32.60;88.50;;;;;;5037980;28;9583;-60
2022/03/27 08:24:46;;;;;;;;;38.50;34.25;32.50;88.80;;;;;;5037673;28;8726;-73
2022/03/27 08:27:13;;;;;;;;;45.00;36.75;32.60;89.10;;;;;;5037384;28;8790;-59
2022/03/27 08:29:41;;;;;;;;;47.25;39.00;32.60;87.70;;;;;;5037126;28;9438;-73
2022/03/27 08:32:12;;;;;;;;;46.50;38.00;32.90;85.90;;;;;;5035714;28;8766;-73
2022/03/27 08:34:40;;;;;;;;;48.75;40.00;32.50;87.20;;;;;;5047180;28;8816;-69
2022/03/27 08:37:10;;;;;;;;;43.00;36.00;32.40;90.30;;;;;;5017878;28;8803;-73
2022/03/27 08:39:38;;;;;;;;;47.75;41.00;32.30;90.30;;;;;;5015798;28;8756;-52
2022/03/27 08:42:05;;;;;;;;;47.50;40.00;32.20;90.60;;;;;;5017357;28;8753;-64
2022/03/27 08:44:37;;;;;;;;;49.50;40.00;32.20;90.30;;;;;;5008333;28;8771;-48
2022/03/27 08:47:06;;;;;;;;;42.75;34.25;32.30;91.20;;;;;;5017792;28;8749;-73
2022/03/27 08:49:40;;;;;;;;;48.75;39.00;32.50;90.60;;;;;;5034658;28;8776;-50
2022/03/27 08:52:17;;;;;;;;;46.00;37.75;32.60;90.40;;;;;;5037228;28;8777;-75
2022/03/27 08:54:50;;;;;;;;;46.75;39.00;32.30;90.70;;;;;;5037155;28;8742;-55
2022/03/27 08:57:38;;;;;;;;;52.25;40.50;32.30;91.70;;;;;;5037067;28;8789;-71
2022/03/27 09:00:06;;;;;;;;;46.25;38.50;32.40;90.80;;;;;;5036176;28;8758;-49
2022/03/27 09:02:32;;;;;;;;;45.75;38.25;32.70;90.50;;;;;;5032018;28;8772;-72
2022/03/27 09:05:02;;;;;;;;;43.00;36.00;32.90;88.60;;;;;;4999516;28;9181;-48
2022/03/27 09:07:29;;;;;;;;;49.75;40.00;32.80;89.20;;;;;;5015675;28;8794;-71
2022/03/27 09:09:58;;;;;;;;;46.25;38.25;32.80;89.80;;;;;;5018043;28;8733;-73
2022/03/27 09:12:25;;;;;;;;;47.75;40.25;32.70;90.00;;;;;;5017463;28;8745;-73
2022/03/27 09:14:52;;;;;;;;;45.50;39.25;32.60;87.20;;;;;;5021827;28;8784;-73
2022/03/27 09:17:19;;;;;;;;;47.00;40.00;32.40;88.50;;;;;;5022291;28;8749;-46
2022/03/27 09:19:50;;;;;;;;;45.50;37.50;32.30;91.40;;;;;;5036781;28;8749;-52
2022/03/27 09:22:19;;;;;;;;;52.50;44.00;32.40;90.90;;;;;;5036806;28;8857;-57
2022/03/27 09:24:49;;;;;;;;;46.00;39.00;32.50;91.20;;;;;;5035227;28;8854;-65
2022/03/27 09:27:16;;;;;;;;;48.75;39.50;32.50;90.90;;;;;;5036724;28;8864;-73
2022/03/27 09:30:01;;;;;;;;;55.00;45.00;32.50;89.80;;;;;;5035262;28;8750;-72
2022/03/27 09:32:29;;;;;;;;;51.00;42.25;32.60;88.80;;;;;;5031961;28;8756;-60
2022/03/27 09:35:02;;;;;;;;;52.50;43.75;32.60;87.70;;;;;;5016533;28;8776;-61
2022/03/27 09:37:30;;;;;;;;;52.75;43.50;32.60;86.60;;;;;;5016640;28;8736;-73
2022/03/27 09:39:56;;;;;;;;;47.50;39.50;32.40;87.40;;;;;;5016809;28;8733;-73
2022/03/27 09:42:24;;;;;;;;;52.50;43.00;32.30;88.20;;;;;;5016126;28;8769;-71
2022/03/27 09:45:08;;;;;;;;;52.50;39.75;32.20;86.50;;;;;;5016584;28;9208;-69
2022/03/27 09:47:35;;;;;;;;;51.00;40.50;32.10;86.50;;;;;;5020222;28;8782;-66
2022/03/27 09:50:01;;;;;;;;;47.75;40.50;32.20;88.20;;;;;;5036188;28;8786;-65
2022/03/27 09:52:28;;;;;;;;;51.25;42.50;32.20;87.60;;;;;;5036074;28;8796;-73
2022/03/27 09:54:59;;;;;;;;;51.25;42.00;32.30;87.10;;;;;;5035442;28;8761;-73
2022/03/27 09:57:30;;;;;;;;;50.25;42.25;32.50;90.00;;;;;;5036137;28;8781;-67
2022/03/27 10:00:13;;;;;;;;;52.50;42.50;32.50;87.30;;;;;;5036255;28;8781;-73
2022/03/27 10:02:43;;;;;;;;;49.25;40.50;32.40;87.60;;;;;;5065953;28;8773;-73
2022/03/27 10:05:11;;;;;;;;;51.50;41.75;32.30;88.90;;;;;;5018988;28;8863;-67
2022/03/27 10:07:54;;;;;;;;;51.25;42.50;32.20;88.30;;;;;;5019638;28;8764;-50
2022/03/27 10:10:22;;;;;;;;;48.25;40.00;32.20;86.60;;;;;;5020615;28;8772;-70
2022/03/27 10:12:50;;;;;;;;;52.00;41.75;32.20;90.80;;;;;;5018552;28;8737;-54
2022/03/27 10:15:22;;;;;;;;;56.00;43.50;32.20;90.90;;;;;;5018463;28;8831;-72
2022/03/27 10:18:05;;;;;;;;;53.50;44.00;32.10;91.00;;;;;;5026138;28;8773;-74
2022/03/27 10:20:36;;;;;;;;;54.25;45.25;32.10;88.80;;;;;;5038464;28;8758;-72
2022/03/27 10:23:08;;;;;;;;;54.75;44.75;32.10;88.60;;;;;;5040235;28;9038;-73
2022/03/27 10:25:38;;;;;;;;;50.75;42.25;32.10;90.20;;;;;;5039542;28;8849;-61
2022/03/27 10:28:06;;;;;;;;;52.25;43.25;32.00;90.90;;;;;;5038722;28;9489;-51
2022/03/27 10:30:36;;;;;;;;;55.25;44.50;32.10;91.80;;;;;;5039033;28;8908;-62
2022/03/27 10:33:02;;;;;;;;;54.00;43.75;32.00;92.70;;;;;;5029415;28;8838;-73
2022/03/27 10:35:35;;;;;;;;;52.00;44.00;31.90;92.70;;;;;;5010373;28;8787;-66
2022/03/27 10:38:05;;;;;;;;;52.25;43.25;31.80;92.10;;;;;;5019320;28;8760;-66
2022/03/27 10:41:11;;;;;;;;;48.75;41.25;31.90;92.20;;;;;;5019119;28;8729;-67
2022/03/27 10:44:08;;;;;;;;;55.00;43.75;31.80;91.00;;;;;;5003834;28;8795;-73
2022/03/27 10:46:34;;;;;;;;;55.50;43.50;32.00;90.70;;;;;;5019340;28;8749;-63
2022/03/27 10:49:17;;;;;;;;;51.25;42.25;32.00;94.90;;;;;;5036091;28;8731;-68
2022/03/27 10:51:44;;;;;;;;;54.50;45.25;32.00;93.70;;;;;;5021725;28;8788;-58
2022/03/27 10:54:18;;;;;;;;;54.00;42.75;31.90;92.00;;;;;;5038855;28;8868;-74
2022/03/27 10:56:51;;;;;;;;;53.25;43.25;31.90;92.50;;;;;;5039187;28;8758;-74
2022/03/27 10:59:25;;;;;;;;;51.50;42.00;31.80;91.50;;;;;;5039057;28;8746;-72
2022/03/27 11:01:57;;;;;;;;;53.25;44.50;31.80;91.80;;;;;;5039101;28;9523;-64
2022/03/27 11:04:36;;;;;;;;;40.25;33.25;31.80;92.20;;;;;;5019035;28;8837;-70
2022/03/27 11:07:19;;;;;;;;;55.50;44.00;31.80;91.20;;;;;;5019629;28;8740;-71
2022/03/27 11:09:46;;;;;;;;;52.25;44.00;31.80;90.30;;;;;;5007581;28;8791;-68
2022/03/27 11:12:24;;;;;;;;;57.25;47.00;31.70;90.70;;;;;;5016426;28;9500;-60
2022/03/27 11:14:59;;;;;;;;;55.50;43.50;31.80;91.50;;;;;;5018884;28;9456;-72
2022/03/27 11:17:40;;;;;;;;;56.80;46.40;31.70;92.70;;;;;;5022613;28;8746;-72
2022/03/27 11:20:33;;;;;;;;;59.00;47.50;31.60;93.30;;;;;;5038951;28;8758;-73
2022/03/27 11:23:02;;;;;;;;;54.75;45.00;31.60;96.40;;;;;;5042750;28;8749;-62
2022/03/27 11:25:38;;;;;;;;;55.25;46.00;31.60;96.70;;;;;;5056597;28;8783;-70
2022/03/27 11:28:12;;;;;;;;;56.50;45.00;31.60;96.10;;;;;;5059184;28;8780;-72
2022/03/27 11:30:41;;;;;;;;;56.25;45.50;31.50;95.80;;;;;;5038272;28;8794;-71
2022/03/27 11:33:24;;;;;;;;;53.25;45.00;31.50;95.10;;;;;;5027541;28;8769;-70
2022/03/27 11:36:09;;;;;;;;;52.25;43.50;31.50;95.40;;;;;;5018585;28;8889;-72
2022/03/27 11:38:58;;;;;;;;;56.75;46.75;31.50;95.30;;;;;;5017913;28;8768;-67
2022/03/27 11:41:25;;;;;;;;;53.50;44.00;31.30;95.60;;;;;;5018236;28;8802;-71
2022/03/27 11:43:55;;;;;;;;;49.75;42.25;31.40;95.00;;;;;;5049929;28;8772;-72
2022/03/27 11:46:29;;;;;;;;;51.50;43.00;31.20;94.80;;;;;;5017307;28;8757;-68
2022/03/27 11:49:00;;;;;;;;;54.00;43.75;31.20;94.00;;;;;;5034712;28;9449;-72
2022/03/27 11:51:27;;;;;;;;;52.25;42.75;31.20;93.20;;;;;;5037772;28;8769;-69
2022/03/27 11:53:55;;;;;;;;;54.00;44.50;31.20;93.10;;;;;;5036542;28;8769;-70
2022/03/27 11:56:24;;;;;;;;;54.50;43.75;31.20;93.30;;;;;;5037431;28;8864;-71
2022/03/27 11:59:08;;;;;;;;;51.75;43.50;31.10;93.50;;;;;;5021287;28;8886;-72
2022/03/27 12:01:38;;;;;;;;;50.50;41.50;31.00;93.50;;;;;;5036548;28;9454;-69
2022/03/27 12:04:06;;;;;;;;;50.75;42.50;31.00;92.80;;;;;;5019628;28;8780;-73
2022/03/27 12:06:33;;;;;;;;;53.25;43.00;30.80;92.10;;;;;;5017585;28;8780;-65
2022/03/27 12:09:00;;;;;;;;;51.25;42.75;30.70;92.30;;;;;;5016500;28;8768;-73
2022/03/27 12:11:27;;;;;;;;;49.25;41.00;30.80;92.30;;;;;;5016339;28;8768;-72
2022/03/27 12:13:57;;;;;;;;;45.75;38.50;30.80;92.30;;;;;;5016756;28;8803;-73
2022/03/27 12:16:25;;;;;;;;;49.25;41.25;30.80;92.60;;;;;;5018174;28;8724;-70
2022/03/27 12:18:52;;;;;;;;;45.75;36.75;30.60;92.90;;;;;;5032796;28;8900;-74
2022/03/27 12:21:20;;;;;;;;;56.00;44.00;30.50;92.60;;;;;;5037180;28;8834;-72
2022/03/27 12:24:02;;;;;;;;;50.00;41.50;30.40;92.70;;;;;;5036655;28;8819;-63
2022/03/27 12:29:40;;;;;;;;;51.25;41.50;30.40;92.60;;;;;;5037354;28;8786;-59
2022/03/27 12:32:13;;;;;;;;;52.75;43.75;30.40;92.70;;;;;;5034828;28;8757;-73
2022/03/27 12:34:48;;;;;;;;;50.25;42.50;30.20;93.20;;;;;;5015947;28;8797;-73
2022/03/27 12:37:16;;;;;;;;;54.00;43.50;30.20;92.80;;;;;;5016909;28;8764;-70
2022/03/27 12:39:48;;;;;;;;;57.00;46.00;29.90;93.40;;;;;;5017219;28;8830;-71
2022/03/27 12:42:37;;;;;;;;;52.75;44.00;30.00;93.40;;;;;;5017119;28;8850;-73
2022/03/27 12:45:14;;;;;;;;;67.50;53.50;29.90;93.20;;;;;;5017506;28;8867;-60
2022/03/27 12:47:43;;;;;;;;;57.75;46.50;30.00;93.60;;;;;;5022525;28;8790;-51
2022/03/27 12:50:12;;;;;;;;;50.00;42.75;29.90;93.60;;;;;;5036770;28;8864;-71
2022/03/27 12:52:52;;;;;;;;;55.50;44.50;29.80;93.80;;;;;;5036586;28;8757;-69
2022/03/27 12:55:19;;;;;;;;;56.75;45.75;29.80;94.00;;;;;;5037371;28;8750;-60
2022/03/27 12:58:00;;;;;;;;;52.50;42.75;29.90;93.80;;;;;;5035442;28;8773;-74